createdAt,value
2022-12-01T00:02:20.852Z,15.18
2022-12-01T00:04:51.281Z,15.16
2022-12-01T00:07:20.501Z,15.14
2022-12-01T00:10:07.852Z,15.13
2022-12-01T00:12:36.849Z,15.12
2022-12-01T00:15:06.960Z,15.10
2022-12-01T00:17:35.500Z,15.09
2022-12-01T00:20:05.736Z,15.09
2022-12-01T00:22:34.409Z,15.07
2022-12-01T00:25:03.620Z,15.02
2022-12-01T00:27:32.319Z,15.01
2022-12-01T00:30:01.197Z,15.02
2022-12-01T00:32:31.699Z,14.97
2022-12-01T00:35:00.502Z,14.98
2022-12-01T00:37:31.764Z,14.97
2022-12-01T00:40:00.913Z,14.94
2022-12-01T00:42:29.674Z,14.95
2022-12-01T00:44:58.703Z,14.93
2022-12-01T00:47:27.341Z,14.92
2022-12-01T00:49:56.473Z,14.93
2022-12-01T00:52:25.175Z,14.92
2022-12-01T00:54:54.221Z,14.89
2022-12-01T00:57:22.895Z,14.90
2022-12-01T00:59:51.755Z,14.84
2022-12-01T01:02:20.333Z,14.85
2022-12-01T01:04:49.326Z,14.83
2022-12-01T01:07:18.152Z,14.83
2022-12-01T01:09:48.177Z,14.81
2022-12-01T01:12:17.263Z,14.80
2022-12-01T01:14:46.248Z,14.79
2022-12-01T01:17:15.010Z,14.78
2022-12-01T01:19:45.281Z,14.76
2022-12-01T01:22:13.879Z,14.76
2022-12-01T01:24:42.850Z,14.76
2022-12-01T01:27:11.361Z,14.73
2022-12-01T01:29:40.311Z,14.73
2022-12-01T01:32:09.677Z,14.72
2022-12-01T01:34:40.042Z,14.70
2022-12-01T01:37:08.636Z,14.68
2022-12-01T01:39:37.822Z,14.68
2022-12-01T01:42:06.381Z,14.67
2022-12-01T01:44:55.249Z,14.67
2022-12-01T01:47:37.641Z,14.65
2022-12-01T01:50:13.328Z,14.64
2022-12-01T01:52:48.917Z,14.63
2022-12-01T01:55:17.887Z,14.59
2022-12-01T01:57:46.789Z,14.60
2022-12-01T02:00:19.527Z,14.56
2022-12-01T02:02:49.312Z,14.60
2022-12-01T02:05:27.979Z,14.59
2022-12-01T02:07:57.946Z,14.57
2022-12-01T02:10:55.616Z,14.56
2022-12-01T02:13:51.983Z,14.55
2022-12-01T02:16:50.636Z,14.54
2022-12-01T02:19:44.783Z,14.54
2022-12-01T02:22:53.600Z,14.53
2022-12-01T02:26:06.159Z,14.52
2022-12-01T02:29:11.273Z,14.51
2022-12-01T02:32:36.443Z,14.49
2022-12-01T02:35:24.799Z,14.49
2022-12-01T02:38:34.889Z,14.44
2022-12-01T02:41:20.139Z,14.44
2022-12-01T02:44:13.139Z,14.46
2022-12-01T02:47:15.668Z,14.45
2022-12-01T02:49:51.741Z,14.42
2022-12-01T02:52:21.076Z,14.43
2022-12-01T02:54:49.879Z,14.42
2022-12-01T02:57:19.107Z,14.41
2022-12-01T02:59:54.564Z,14.41
2022-12-01T03:02:42.482Z,14.40
2022-12-01T03:05:39.642Z,14.36
2022-12-01T03:08:56.738Z,14.39
2022-12-01T03:12:16.058Z,14.37
2022-12-01T03:15:34.307Z,14.36
2022-12-01T03:18:11.849Z,14.36
2022-12-01T03:20:52.201Z,14.34
2022-12-01T03:23:23.532Z,14.33
2022-12-01T03:25:54.922Z,14.33
2022-12-01T03:28:29.137Z,14.30
2022-12-01T03:31:02.106Z,14.33
2022-12-01T03:33:38.874Z,14.33
2022-12-01T03:36:17.469Z,14.27
2022-12-01T03:38:49.238Z,14.30
2022-12-01T03:41:25.926Z,14.30
2022-12-01T03:44:02.349Z,14.29
2022-12-01T03:46:57.308Z,14.29
2022-12-01T03:49:27.161Z,14.28
2022-12-01T03:52:40.249Z,14.27
2022-12-01T03:55:25.732Z,14.26
2022-12-01T03:58:06.651Z,14.23
2022-12-01T04:00:35.729Z,14.21
2022-12-01T04:03:05.208Z,14.25
2022-12-01T04:05:35.049Z,14.23
2022-12-01T04:08:04.387Z,14.23
2022-12-01T04:10:33.468Z,14.23
2022-12-01T04:13:02.582Z,14.22
2022-12-01T04:15:31.089Z,14.21
2022-12-01T04:17:59.889Z,14.19
2022-12-01T04:20:28.438Z,14.20
2022-12-01T04:22:57.312Z,14.19
2022-12-01T04:25:25.796Z,14.18
2022-12-01T04:27:54.888Z,14.18
2022-12-01T04:30:23.642Z,14.15
2022-12-01T04:32:52.689Z,14.16
2022-12-01T04:35:21.738Z,14.17
2022-12-01T04:37:51.748Z,14.15
2022-12-01T04:40:21.877Z,14.19
2022-12-01T04:42:50.790Z,14.23
2022-12-01T04:45:19.367Z,14.30
2022-12-01T04:47:48.269Z,14.38
2022-12-01T04:50:16.939Z,14.44
2022-12-01T04:52:46.839Z,14.53
2022-12-01T04:55:16.022Z,14.58
2022-12-01T04:57:45.028Z,14.70
2022-12-01T05:00:15.348Z,14.79
2022-12-01T05:02:44.556Z,14.84
2022-12-01T05:05:14.264Z,14.90
2022-12-01T05:07:44.087Z,14.93
2022-12-01T05:10:14.537Z,15.07
2022-12-01T05:12:44.528Z,15.10
2022-12-01T05:15:13.511Z,15.20
2022-12-01T05:17:42.831Z,15.35
2022-12-01T05:20:39.972Z,15.45
2022-12-01T05:23:12.220Z,15.46
2022-12-01T05:25:43.848Z,15.61
2022-12-01T05:28:13.970Z,15.74
2022-12-01T05:30:43.302Z,15.79
2022-12-01T05:33:12.391Z,15.91
2022-12-01T05:35:41.209Z,15.99
2022-12-01T05:38:11.318Z,15.98
2022-12-01T05:40:39.909Z,16.07
2022-12-01T05:43:08.784Z,16.13
2022-12-01T05:45:37.280Z,16.16
2022-12-01T05:48:06.476Z,16.21
2022-12-01T05:50:38.908Z,16.33
2022-12-01T05:53:11.317Z,16.37
2022-12-01T05:55:40.098Z,16.38
2022-12-01T05:58:10.940Z,16.38
2022-12-01T06:00:45.265Z,16.33
2022-12-01T06:03:15.267Z,16.28
2022-12-01T06:05:43.927Z,16.29
2022-12-01T06:08:12.868Z,16.26
2022-12-01T06:10:41.438Z,16.19
2022-12-01T06:13:10.289Z,16.12
2022-12-01T06:15:38.822Z,16.13
2022-12-01T06:18:08.149Z,16.09
2022-12-01T06:20:37.113Z,16.07
2022-12-01T06:23:06.238Z,16.02
2022-12-01T06:25:35.209Z,15.93
2022-12-01T06:28:04.232Z,15.92
2022-12-01T06:30:34.108Z,15.89
2022-12-01T06:33:02.632Z,15.87
2022-12-01T06:35:31.560Z,15.86
2022-12-01T06:38:00.378Z,15.82
2022-12-01T06:40:30.685Z,15.79
2022-12-01T06:43:06.123Z,15.71
2022-12-01T06:45:35.386Z,15.73
2022-12-01T06:48:04.270Z,15.68
2022-12-01T06:50:33.151Z,15.72
2022-12-01T06:53:01.704Z,15.69
2022-12-01T06:55:31.399Z,15.63
2022-12-01T06:58:03.464Z,15.57
2022-12-01T07:00:32.929Z,15.54
2022-12-01T07:03:01.411Z,15.54
2022-12-01T07:05:30.220Z,15.49
2022-12-01T07:07:59.838Z,15.46
2022-12-01T07:10:28.980Z,15.42
2022-12-01T07:12:57.553Z,15.38
2022-12-01T07:15:26.363Z,15.36
2022-12-01T07:17:54.943Z,15.33
2022-12-01T07:20:25.095Z,15.31
2022-12-01T07:22:55.031Z,15.31
2022-12-01T07:25:23.928Z,15.28
2022-12-01T07:27:52.501Z,15.26
2022-12-01T07:30:26.881Z,15.25
2022-12-01T07:32:57.035Z,15.23
2022-12-01T07:35:27.232Z,15.20
2022-12-01T07:37:56.769Z,15.17
2022-12-01T07:40:26.057Z,15.16
2022-12-01T07:42:54.650Z,15.14
2022-12-01T07:45:24.739Z,15.11
2022-12-01T07:47:54.771Z,15.11
2022-12-01T07:50:23.718Z,15.08
2022-12-01T07:52:52.390Z,15.07
2022-12-01T07:55:22.600Z,15.07
2022-12-01T07:57:51.150Z,14.93
2022-12-01T08:00:21.804Z,14.82
2022-12-01T08:02:50.515Z,14.74
2022-12-01T08:05:19.588Z,14.68
2022-12-01T08:07:48.223Z,14.59
2022-12-01T08:10:17.472Z,14.54
2022-12-01T08:12:48.947Z,14.54
2022-12-01T08:15:18.870Z,14.59
2022-12-01T08:17:47.571Z,14.64
2022-12-01T08:20:20.911Z,14.71
2022-12-01T08:22:52.664Z,14.74
2022-12-01T08:25:22.318Z,14.77
2022-12-01T08:27:50.868Z,14.78
2022-12-01T08:30:20.075Z,14.78
2022-12-01T08:32:48.658Z,14.80
2022-12-01T08:35:17.699Z,14.78
2022-12-01T08:37:46.430Z,14.78
2022-12-01T08:40:15.511Z,14.78
2022-12-01T08:42:44.827Z,14.78
2022-12-01T08:45:13.871Z,14.77
2022-12-01T08:47:43.328Z,14.78
2022-12-01T08:50:13.258Z,14.77
2022-12-01T08:52:41.986Z,14.78
2022-12-01T08:55:11.158Z,14.79
2022-12-01T08:57:39.807Z,14.79
2022-12-01T09:00:09.523Z,14.77
2022-12-01T09:02:38.260Z,14.80
2022-12-01T09:05:07.818Z,14.80
2022-12-01T09:07:36.561Z,14.79
2022-12-01T09:10:06.978Z,14.79
2022-12-01T09:12:35.622Z,14.81
2022-12-01T09:15:05.093Z,14.85
2022-12-01T09:17:33.898Z,14.92
2022-12-01T09:20:02.809Z,14.98
2022-12-01T09:22:31.346Z,15.08
2022-12-01T09:25:00.407Z,15.10
2022-12-01T09:27:28.938Z,15.12
2022-12-01T09:29:57.851Z,15.14
2022-12-01T09:32:26.538Z,15.12
2022-12-01T09:34:55.389Z,15.07
2022-12-01T09:37:24.112Z,15.01
2022-12-01T09:39:53.072Z,14.90
2022-12-01T09:42:30.885Z,14.94
2022-12-01T09:45:04.580Z,14.92
2022-12-01T09:47:35.242Z,14.93
2022-12-01T09:50:16.795Z,14.93
2022-12-01T09:52:57.407Z,14.96
2022-12-01T09:55:26.775Z,14.97
2022-12-01T09:57:59.707Z,15.04
2022-12-01T10:00:38.456Z,15.09
2022-12-01T10:03:24.950Z,15.10
2022-12-01T10:06:27.740Z,15.16
2022-12-01T10:09:44.941Z,15.16
2022-12-01T10:12:15.428Z,15.22
2022-12-01T10:14:47.046Z,15.20
2022-12-01T10:17:29.001Z,15.22
2022-12-01T10:20:40.659Z,15.19
2022-12-01T10:23:19.352Z,15.20
2022-12-01T10:25:59.062Z,15.14
2022-12-01T10:28:45.419Z,15.19
2022-12-01T10:31:27.757Z,15.22
2022-12-01T10:34:08.561Z,15.22
2022-12-01T10:36:36.968Z,15.18
2022-12-01T10:39:09.439Z,15.20
2022-12-01T10:41:37.999Z,15.18
2022-12-01T10:44:07.131Z,15.19
2022-12-01T10:46:44.151Z,15.16
2022-12-01T10:49:16.887Z,15.19
2022-12-01T10:51:55.098Z,15.25
2022-12-01T10:54:39.944Z,15.20
2022-12-01T10:57:16.181Z,15.25
2022-12-01T10:59:53.628Z,15.27
2022-12-01T11:02:24.755Z,15.27
2022-12-01T11:05:02.906Z,15.26
2022-12-01T11:07:42.178Z,15.24
2022-12-01T11:10:30.929Z,15.19
2022-12-01T11:13:30.421Z,15.26
2022-12-01T11:16:02.619Z,15.27
2022-12-01T11:18:36.418Z,15.32
2022-12-01T11:21:26.080Z,15.32
2022-12-01T11:23:56.250Z,15.31
2022-12-01T11:26:26.784Z,15.27
2022-12-01T11:28:56.263Z,15.27
2022-12-01T11:31:47.395Z,15.24
2022-12-01T11:34:26.263Z,15.28
2022-12-01T11:37:02.066Z,15.25
2022-12-01T11:39:38.911Z,15.33
2022-12-01T11:42:29.794Z,15.40
2022-12-01T11:45:04.290Z,15.39
2022-12-01T11:47:33.251Z,15.45
2022-12-01T11:50:07.679Z,15.46
2022-12-01T11:52:46.929Z,15.43
2022-12-01T11:55:15.907Z,15.44
2022-12-01T11:57:46.826Z,15.46
2022-12-01T12:00:21.023Z,15.46
2022-12-01T12:03:01.654Z,15.42
2022-12-01T12:05:36.739Z,15.48
2022-12-01T12:08:30.248Z,15.52
2022-12-01T12:11:36.780Z,15.49
2022-12-01T12:14:14.950Z,15.53
2022-12-01T12:17:08.484Z,15.52
2022-12-01T12:20:16.210Z,15.52
2022-12-01T12:23:42.483Z,15.49
2022-12-01T12:26:27.550Z,15.56
2022-12-01T12:29:26.129Z,15.54
2022-12-01T12:32:32.631Z,15.58
2022-12-01T12:35:42.618Z,15.58
2022-12-01T12:38:47.080Z,15.56
2022-12-01T12:41:34.061Z,15.59
2022-12-01T12:44:37.486Z,15.60
2022-12-01T12:47:38.347Z,15.55
2022-12-01T12:50:23.210Z,15.55
2022-12-01T12:53:19.523Z,15.56
2022-12-01T12:55:54.529Z,15.51
2022-12-01T12:58:31.750Z,15.51
2022-12-01T13:01:39.279Z,15.49
2022-12-01T13:04:22.059Z,15.47
2022-12-01T13:07:23.061Z,15.49
2022-12-01T13:10:07.379Z,15.49
2022-12-01T13:12:40.670Z,15.45
2022-12-01T13:15:20.712Z,15.51
2022-12-01T13:17:59.224Z,15.53
2022-12-01T13:20:30.420Z,15.55
2022-12-01T13:23:00.103Z,15.57
2022-12-01T13:25:40.641Z,15.56
2022-12-01T13:28:24.200Z,15.61
2022-12-01T13:31:10.254Z,15.61
2022-12-01T13:34:03.394Z,15.57
2022-12-01T13:36:46.661Z,15.62
2022-12-01T13:39:37.752Z,15.62
2022-12-01T13:42:20.379Z,15.58
2022-12-01T13:45:01.503Z,15.57
2022-12-01T13:47:33.580Z,15.58
2022-12-01T13:50:44.185Z,15.54
2022-12-01T13:53:38.641Z,15.49
2022-12-01T13:56:17.623Z,15.48
2022-12-01T13:58:51.935Z,15.43
2022-12-01T14:01:21.217Z,15.40
2022-12-01T14:04:02.321Z,15.36
2022-12-01T14:06:46.911Z,15.35
2022-12-01T14:09:36.443Z,15.32
2022-12-01T14:12:11.808Z,15.27
2022-12-01T14:14:44.881Z,15.27
2022-12-01T14:17:35.428Z,15.22
2022-12-01T14:20:24.190Z,15.18
2022-12-01T14:23:24.558Z,15.16
2022-12-01T14:26:20.004Z,15.13
2022-12-01T14:29:00.997Z,15.06
2022-12-01T14:31:35.510Z,15.05
2022-12-01T14:34:08.701Z,15.04
2022-12-01T14:36:52.501Z,15.03
2022-12-01T14:39:33.491Z,14.99
2022-12-01T14:42:46.415Z,14.97
2022-12-01T14:45:43.156Z,14.92
2022-12-01T14:48:43.469Z,14.95
2022-12-01T14:51:32.673Z,14.89
2022-12-01T14:54:04.790Z,14.91
2022-12-01T14:56:35.368Z,14.88
2022-12-01T14:59:20.871Z,14.84
2022-12-01T15:01:55.693Z,14.84
2022-12-01T15:04:24.400Z,14.83
2022-12-01T15:06:57.532Z,14.84
2022-12-01T15:09:35.121Z,14.85
2022-12-01T15:12:09.457Z,14.80
2022-12-01T15:14:46.892Z,14.78
2022-12-01T15:17:44.971Z,14.77
2022-12-01T15:20:41.221Z,14.74
2022-12-01T15:23:17.318Z,14.73
2022-12-01T15:25:46.907Z,14.71
2022-12-01T15:28:18.109Z,14.72
2022-12-01T15:30:53.258Z,14.71
2022-12-01T15:33:34.029Z,14.69
2022-12-01T15:36:06.323Z,14.63
2022-12-01T15:38:37.501Z,14.63
2022-12-01T15:44:00.791Z,14.64
2022-12-01T15:46:32.042Z,14.61
2022-12-01T15:49:27.725Z,14.61
2022-12-01T15:52:10.638Z,14.59
2022-12-01T15:54:39.431Z,14.59
2022-12-01T15:57:08.022Z,14.58
2022-12-01T15:59:41.819Z,14.58
2022-12-01T16:02:30.829Z,14.57
2022-12-01T16:05:19.253Z,14.57
2022-12-01T16:08:12.649Z,14.57
2022-12-01T16:10:38.643Z,14.57
2022-12-01T16:13:41.311Z,14.56
2022-12-01T16:16:47.150Z,14.55
2022-12-01T16:19:18.658Z,14.56
2022-12-01T16:21:55.189Z,14.52
2022-12-01T16:24:30.903Z,14.52
2022-12-01T16:27:04.421Z,14.54
2022-12-01T16:29:49.604Z,14.55
2022-12-01T16:32:23.203Z,14.54
2022-12-01T16:34:53.798Z,14.52
2022-12-01T16:37:23.958Z,14.57
2022-12-01T16:39:52.738Z,14.64
2022-12-01T16:42:22.190Z,14.67
2022-12-01T16:44:51.802Z,14.70
2022-12-01T16:47:24.298Z,14.79
2022-12-01T16:49:53.330Z,14.78
2022-12-01T16:52:43.610Z,14.90
2022-12-01T16:55:28.088Z,15.03
2022-12-01T16:57:57.777Z,15.05
2022-12-01T17:00:27.711Z,15.16
2022-12-01T17:02:57.430Z,15.20
2022-12-01T17:05:26.125Z,15.35
2022-12-01T17:07:55.029Z,15.41
2022-12-01T17:10:24.529Z,15.36
2022-12-01T17:12:53.719Z,15.58
2022-12-01T17:15:22.137Z,15.65
2022-12-01T17:17:52.183Z,15.70
2022-12-01T17:20:20.788Z,15.81
2022-12-01T17:22:51.141Z,15.87
2022-12-01T17:25:19.762Z,15.91
2022-12-01T17:27:48.737Z,16.04
2022-12-01T17:30:17.487Z,16.13
2022-12-01T17:32:49.527Z,16.21
2022-12-01T17:35:18.304Z,16.13
2022-12-01T17:37:47.300Z,16.19
2022-12-01T17:40:15.989Z,16.24
2022-12-01T17:42:50.293Z,16.39
2022-12-01T17:45:20.357Z,16.33
2022-12-01T17:47:49.395Z,16.39
2022-12-01T17:50:18.219Z,16.42
2022-12-01T17:52:47.272Z,16.40
2022-12-01T17:55:15.983Z,16.38
2022-12-01T17:57:45.129Z,16.37
2022-12-01T18:00:15.048Z,16.34
2022-12-01T18:02:44.529Z,16.25
2022-12-01T18:05:13.534Z,16.33
2022-12-01T18:07:42.656Z,16.29
2022-12-01T18:10:11.488Z,16.29
2022-12-01T18:12:40.479Z,16.31
2022-12-01T18:15:09.940Z,16.33
2022-12-01T18:17:39.411Z,16.36
2022-12-01T18:20:09.101Z,16.31
2022-12-01T18:22:37.887Z,16.32
2022-12-01T18:25:06.906Z,16.28
2022-12-01T18:27:35.807Z,16.24
2022-12-01T18:30:05.348Z,16.19
2022-12-01T18:32:34.180Z,16.16
2022-12-01T18:35:03.125Z,16.13
2022-12-01T18:37:32.132Z,16.21
2022-12-01T18:40:21.010Z,16.24
2022-12-01T18:42:50.979Z,16.27
2022-12-01T18:45:21.505Z,16.25
2022-12-01T18:47:50.772Z,16.28
2022-12-01T18:50:19.611Z,16.35
2022-12-01T18:52:48.853Z,16.38
2022-12-01T18:55:17.558Z,16.43
2022-12-01T18:57:46.623Z,16.48
2022-12-01T19:00:15.968Z,16.53
2022-12-01T19:02:45.904Z,16.53
2022-12-01T19:05:15.392Z,16.55
2022-12-01T19:07:47.849Z,16.55
2022-12-01T19:10:16.739Z,16.54
2022-12-01T19:12:46.945Z,16.53
2022-12-01T19:15:15.813Z,16.46
2022-12-01T19:17:44.891Z,16.45
2022-12-01T19:20:13.813Z,16.41
2022-12-01T19:22:43.005Z,16.39
2022-12-01T19:25:13.716Z,16.36
2022-12-01T19:27:42.963Z,16.27
2022-12-01T19:30:12.990Z,16.31
2022-12-01T19:32:43.960Z,16.28
2022-12-01T19:35:12.633Z,16.27
2022-12-01T19:37:41.905Z,16.21
2022-12-01T19:40:12.126Z,16.19
2022-12-01T19:42:42.391Z,16.18
2022-12-01T19:45:11.515Z,16.16
2022-12-01T19:47:40.439Z,16.14
2022-12-01T19:50:10.228Z,16.09
2022-12-01T19:52:41.726Z,16.09
2022-12-01T19:55:11.623Z,16.04
2022-12-01T19:57:40.466Z,16.03
2022-12-01T20:00:12.437Z,15.97
2022-12-01T20:02:41.412Z,15.96
2022-12-01T20:05:10.411Z,15.94
2022-12-01T20:07:39.389Z,15.93
2022-12-01T20:10:08.580Z,15.90
2022-12-01T20:12:37.558Z,15.94
2022-12-01T20:15:08.914Z,15.96
2022-12-01T20:17:38.181Z,16.04
2022-12-01T20:20:08.034Z,16.11
2022-12-01T20:22:37.211Z,16.15
2022-12-01T20:25:06.598Z,16.15
2022-12-01T20:27:35.601Z,16.24
2022-12-01T20:30:04.559Z,16.32
2022-12-01T20:32:34.477Z,16.39
2022-12-01T20:35:03.811Z,16.46
2022-12-01T20:37:32.767Z,16.42
2022-12-01T20:40:01.650Z,16.39
2022-12-01T20:42:30.685Z,16.39
2022-12-01T20:44:59.344Z,16.43
2022-12-01T20:47:28.485Z,16.41
2022-12-01T20:49:58.552Z,16.40
2022-12-01T20:52:27.856Z,16.41
2022-12-01T20:54:56.567Z,16.39
2022-12-01T20:57:25.960Z,16.34
2022-12-01T20:59:54.731Z,16.31
2022-12-01T21:02:23.760Z,16.28
2022-12-01T21:04:56.418Z,16.28
2022-12-01T21:07:28.352Z,16.24
2022-12-01T21:09:57.130Z,16.14
2022-12-01T21:12:47.971Z,16.17
2022-12-01T21:16:03.482Z,16.15
2022-12-01T21:18:56.370Z,16.11
2022-12-01T21:21:28.021Z,16.07
2022-12-01T21:24:10.977Z,16.07
2022-12-01T21:26:43.159Z,16.04
2022-12-01T21:29:29.142Z,16.01
2022-12-01T21:32:00.941Z,15.96
2022-12-01T21:34:30.102Z,15.96
2022-12-01T21:37:01.782Z,15.94
2022-12-01T21:39:30.880Z,15.91
2022-12-01T21:42:03.743Z,15.88
2022-12-01T21:44:37.498Z,15.87
2022-12-01T21:47:22.269Z,15.87
2022-12-01T21:49:54.374Z,15.83
2022-12-01T21:52:35.325Z,15.86
2022-12-01T21:55:16.515Z,15.88
2022-12-01T21:57:54.431Z,15.88
2022-12-01T22:00:35.810Z,15.96
2022-12-01T22:03:16.124Z,16.05
2022-12-01T22:06:13.724Z,16.10
2022-12-01T22:08:41.173Z,16.10
2022-12-01T22:11:23.704Z,16.14
2022-12-01T22:14:24.159Z,16.12
2022-12-01T22:17:07.020Z,16.11
2022-12-01T22:19:45.214Z,16.08
2022-12-01T22:22:23.005Z,16.06
2022-12-01T22:24:54.048Z,16.07
2022-12-01T22:27:41.137Z,16.06
2022-12-01T22:30:09.525Z,16.04
2022-12-01T22:33:00.329Z,16.03
2022-12-01T22:35:52.964Z,15.99
2022-12-01T22:38:42.335Z,15.96
2022-12-01T22:41:21.867Z,15.94
2022-12-01T22:44:03.490Z,15.93
2022-12-01T22:46:36.332Z,15.90
2022-12-01T22:49:22.675Z,15.88
2022-12-01T22:52:16.466Z,15.85
2022-12-01T22:54:49.968Z,15.83
2022-12-01T22:57:37.186Z,15.78
2022-12-01T23:00:19.895Z,15.81
2022-12-01T23:02:49.914Z,15.79
2022-12-01T23:05:29.079Z,15.77
2022-12-01T23:07:57.879Z,15.73
2022-12-01T23:10:30.773Z,15.73
2022-12-01T23:13:01.748Z,15.70
2022-12-01T23:15:39.703Z,15.67
2022-12-01T23:18:23.261Z,15.65
2022-12-01T23:20:57.360Z,15.63
2022-12-01T23:23:34.151Z,15.60
2022-12-01T23:26:07.652Z,15.60
2022-12-01T23:28:37.349Z,15.57
2022-12-01T23:31:07.391Z,15.57
2022-12-01T23:33:36.127Z,15.56
2022-12-01T23:36:23.552Z,15.55
2022-12-01T23:38:56.431Z,15.54
2022-12-01T23:41:50.946Z,15.48
2022-12-01T23:44:41.679Z,15.46
2022-12-01T23:47:24.961Z,15.48
2022-12-01T23:50:01.648Z,15.47
2022-12-01T23:52:36.430Z,15.46
2022-12-01T23:55:29.687Z,15.45
2022-12-01T23:57:59.034Z,15.43
